sensor_id;sensor_type;location;lat;lon;timestamp;temperature;humidity
2100;DHT22;1055;48.854;9.302;2024-01-15T00:01:56;-0.40;99.90
2100;DHT22;1055;48.854;9.302;2024-01-15T00:04:22;-0.30;99.90
2100;DHT22;1055;48.854;9.302;2024-01-15T00:06:48;-0.20;99.90
2100;DHT22;1055;48.854;9.302;2024-01-15T00:09:14;-0.10;99.90
2100;DHT22;1055;48.854;9.302;2024-01-15T00:11:40;0.00;99.90
2100;DHT22;1055;48.854;9.302;2024-01-15T00:14:05;0.00;99.90
2100;DHT22;1055;48.854;9.302;2024-01-15T00:16:31;0.00;99.90
2100;DHT22;1055;48.854;9.302;2024-01-15T00:18:57;0.10;99.90
2100;DHT22;1055;48.854;9.302;2024-01-15T00:21:22;0.10;99.90
2100;DHT22;1055;48.854;9.302;2024-01-15T00:23:48;0.20;99.90
2100;DHT22;1055;48.854;9.302;2024-01-15T00:26:14;0.30;99.90
2100;DHT22;1055;48.854;9.302;2024-01-15T00:28:40;0.40;99.90
2100;DHT22;1055;48.854;9.302;2024-01-15T00:31:06;0.20;99.90
2100;DHT22;1055;48.854;9.302;2024-01-15T00:33:31;0.30;99.90
2100;DHT22;1055;48.854;9.302;2024-01-15T00:35:57;0.20;99.90
2100;DHT22;1055;48.854;9.302;2024-01-15T00:38:23;0.20;99.90
2100;DHT22;1055;48.854;9.302;2024-01-15T00:40:48;0.30;99.90
2100;DHT22;1055;48.854;9.302;2024-01-15T00:43:14;0.30;99.90
2100;DHT22;1055;48.854;9.302;2024-01-15T00:45:40;0.30;99.90
2100;DHT22;1055;48.854;9.302;2024-01-15T00:48:06;0.30;99.90
2100;DHT22;1055;48.854;9.302;2024-01-15T00:50:32;0.20;99.90
2100;DHT22;1055;48.854;9.302;2024-01-15T00:52:57;0.20;99.90
2100;DHT22;1055;48.854;9.302;2024-01-15T00:55:23;0.10;99.90
2100;DHT22;1055;48.854;9.302;2024-01-15T00:57:48;0.20;99.90
2100;DHT22;1055;48.854;9.302;2024-01-15T01:00:14;0.30;99.90
2100;DHT22;1055;48.854;9.302;2024-01-15T01:02:39;0.30;99.90
2100;DHT22;1055;48.854;9.302;2024-01-15T01:05:05;0.20;99.90
2100;DHT22;1055;48.854;9.302;2024-01-15T01:07:31;-0.30;99.90
2100;DHT22;1055;48.854;9.302;2024-01-15T01:09:56;-0.70;99.90
2100;DHT22;1055;48.854;9.302;2024-01-15T01:12:22;-0.30;99.90
2100;DHT22;1055;48.854;9.302;2024-01-15T01:14:47;-0.20;99.90
2100;DHT22;1055;48.854;9.302;2024-01-15T01:17:13;-0.40;99.90
2100;DHT22;1055;48.854;9.302;2024-01-15T01:19:39;-0.20;99.90
2100;DHT22;1055;48.854;9.302;2024-01-15T01:22:04;-0.20;99.90
2100;DHT22;1055;48.854;9.302;2024-01-15T01:24:30;-0.30;99.90
2100;DHT22;1055;48.854;9.302;2024-01-15T01:26:56;-0.30;99.90
2100;DHT22;1055;48.854;9.302;2024-01-15T01:29:21;-0.70;99.90
2100;DHT22;1055;48.854;9.302;2024-01-15T01:31:48;-0.50;99.90
2100;DHT22;1055;48.854;9.302;2024-01-15T01:34:15;-0.70;99.90
2100;DHT22;1055;48.854;9.302;2024-01-15T01:36:42;-1.60;99.90
2100;DHT22;1055;48.854;9.302;2024-01-15T01:39:08;-2.00;99.90
2100;DHT22;1055;48.854;9.302;2024-01-15T01:41:34;-2.30;99.90
2100;DHT22;1055;48.854;9.302;2024-01-15T01:44:00;-2.00;99.90
2100;DHT22;1055;48.854;9.302;2024-01-15T01:46:27;-2.30;99.90
2100;DHT22;1055;48.854;9.302;2024-01-15T01:48:54;-1.90;99.90
2100;DHT22;1055;48.854;9.302;2024-01-15T01:51:21;-1.90;99.90
2100;DHT22;1055;48.854;9.302;2024-01-15T01:53:47;-1.40;99.90
2100;DHT22;1055;48.854;9.302;2024-01-15T01:56:13;-1.10;99.90
2100;DHT22;1055;48.854;9.302;2024-01-15T01:58:39;-0.80;99.90
2100;DHT22;1055;48.854;9.302;2024-01-15T02:01:06;-0.70;99.90
2100;DHT22;1055;48.854;9.302;2024-01-15T02:03:33;-0.70;99.90
2100;DHT22;1055;48.854;9.302;2024-01-15T02:06:00;-0.90;99.90
2100;DHT22;1055;48.854;9.302;2024-01-15T02:08:26;-0.80;99.90
2100;DHT22;1055;48.854;9.302;2024-01-15T02:10:52;-1.00;99.90
2100;DHT22;1055;48.854;9.302;2024-01-15T02:13:18;-1.30;99.90
2100;DHT22;1055;48.854;9.302;2024-01-15T02:15:44;-1.70;99.90
2100;DHT22;1055;48.854;9.302;2024-01-15T02:18:09;-2.10;99.90
2100;DHT22;1055;48.854;9.302;2024-01-15T02:20:35;-2.40;99.90
2100;DHT22;1055;48.854;9.302;2024-01-15T02:23:10;-2.20;99.90
2100;DHT22;1055;48.854;9.302;2024-01-15T02:25:41;-2.20;99.90
2100;DHT22;1055;48.854;9.302;2024-01-15T02:28:12;-2.30;99.90
2100;DHT22;1055;48.854;9.302;2024-01-15T02:30:39;-2.40;99.90
2100;DHT22;1055;48.854;9.302;2024-01-15T02:33:06;-1.90;99.90
2100;DHT22;1055;48.854;9.302;2024-01-15T02:35:32;-1.70;99.90
2100;DHT22;1055;48.854;9.302;2024-01-15T02:37:58;-1.60;99.90
2100;DHT22;1055;48.854;9.302;2024-01-15T02:40:24;-1.10;99.90
2100;DHT22;1055;48.854;9.302;2024-01-15T02:42:50;-0.70;99.90
2100;DHT22;1055;48.854;9.302;2024-01-15T02:45:15;-0.50;99.90
2100;DHT22;1055;48.854;9.302;2024-01-15T02:47:41;-0.30;99.90
2100;DHT22;1055;48.854;9.302;2024-01-15T02:50:07;-0.10;99.90
2100;DHT22;1055;48.854;9.302;2024-01-15T02:52:32;0.10;99.90
2100;DHT22;1055;48.854;9.302;2024-01-15T02:54:58;0.00;99.90
2100;DHT22;1055;48.854;9.302;2024-01-15T02:57:23;0.10;99.90
2100;DHT22;1055;48.854;9.302;2024-01-15T02:59:49;0.30;99.90
2100;DHT22;1055;48.854;9.302;2024-01-15T03:02:14;0.30;99.90
2100;DHT22;1055;48.854;9.302;2024-01-15T03:04:44;0.20;99.90
2100;DHT22;1055;48.854;9.302;2024-01-15T03:07:09;0.40;99.90
2100;DHT22;1055;48.854;9.302;2024-01-15T03:09:35;0.50;99.90
2100;DHT22;1055;48.854;9.302;2024-01-15T03:12:00;0.50;99.90
2100;DHT22;1055;48.854;9.302;2024-01-15T03:14:26;0.60;99.90
2100;DHT22;1055;48.854;9.302;2024-01-15T03:16:52;0.60;99.90
2100;DHT22;1055;48.854;9.302;2024-01-15T03:19:18;0.80;99.90
2100;DHT22;1055;48.854;9.302;2024-01-15T03:21:44;0.70;99.90
2100;DHT22;1055;48.854;9.302;2024-01-15T03:24:09;0.70;99.90
2100;DHT22;1055;48.854;9.302;2024-01-15T03:26:35;0.70;99.90
2100;DHT22;1055;48.854;9.302;2024-01-15T03:29:00;0.70;99.90
2100;DHT22;1055;48.854;9.302;2024-01-15T03:31:26;0.70;99.90
2100;DHT22;1055;48.854;9.302;2024-01-15T03:33:51;0.80;99.90
2100;DHT22;1055;48.854;9.302;2024-01-15T03:36:17;0.80;99.90
2100;DHT22;1055;48.854;9.302;2024-01-15T03:38:42;0.80;99.90
2100;DHT22;1055;48.854;9.302;2024-01-15T03:41:08;0.70;99.90
2100;DHT22;1055;48.854;9.302;2024-01-15T03:43:34;0.70;99.90
2100;DHT22;1055;48.854;9.302;2024-01-15T03:45:59;0.70;99.90
2100;DHT22;1055;48.854;9.302;2024-01-15T03:48:25;0.80;99.90
2100;DHT22;1055;48.854;9.302;2024-01-15T03:50:50;0.80;99.90
2100;DHT22;1055;48.854;9.302;2024-01-15T03:53:16;0.80;99.90
2100;DHT22;1055;48.854;9.302;2024-01-15T03:55:42;0.80;99.90
2100;DHT22;1055;48.854;9.302;2024-01-15T03:58:07;0.70;99.90
2100;DHT22;1055;48.854;9.302;2024-01-15T04:00:34;0.50;99.90
2100;DHT22;1055;48.854;9.302;2024-01-15T04:03:00;0.60;99.90
2100;DHT22;1055;48.854;9.302;2024-01-15T04:05:26;0.30;99.90
2100;DHT22;1055;48.854;9.302;2024-01-15T04:07:51;0.40;99.90
2100;DHT22;1055;48.854;9.302;2024-01-15T04:10:17;0.30;99.90
2100;DHT22;1055;48.854;9.302;2024-01-15T04:12:42;0.30;99.90
2100;DHT22;1055;48.854;9.302;2024-01-15T04:15:08;0.40;99.90
2100;DHT22;1055;48.854;9.302;2024-01-15T04:17:34;0.50;99.90
2100;DHT22;1055;48.854;9.302;2024-01-15T04:19:59;0.50;99.90
2100;DHT22;1055;48.854;9.302;2024-01-15T04:22:26;0.40;99.90
2100;DHT22;1055;48.854;9.302;2024-01-15T04:24:52;0.30;99.90
2100;DHT22;1055;48.854;9.302;2024-01-15T04:27:17;0.10;99.90
2100;DHT22;1055;48.854;9.302;2024-01-15T04:29:43;0.10;99.90
2100;DHT22;1055;48.854;9.302;2024-01-15T04:32:09;-0.10;99.90
2100;DHT22;1055;48.854;9.302;2024-01-15T04:34:35;-0.10;99.90
2100;DHT22;1055;48.854;9.302;2024-01-15T04:37:01;0.00;99.90
2100;DHT22;1055;48.854;9.302;2024-01-15T04:39:26;0.20;99.90
2100;DHT22;1055;48.854;9.302;2024-01-15T04:41:52;0.30;99.90
2100;DHT22;1055;48.854;9.302;2024-01-15T04:44:18;-0.10;99.90
2100;DHT22;1055;48.854;9.302;2024-01-15T04:46:43;-0.10;99.90
2100;DHT22;1055;48.854;9.302;2024-01-15T04:49:09;-0.20;99.90
2100;DHT22;1055;48.854;9.302;2024-01-15T04:51:35;-0.10;99.90
2100;DHT22;1055;48.854;9.302;2024-01-15T04:54:01;-0.10;99.90
2100;DHT22;1055;48.854;9.302;2024-01-15T04:56:26;-0.10;99.90
2100;DHT22;1055;48.854;9.302;2024-01-15T04:58:52;0.00;99.90
2100;DHT22;1055;48.854;9.302;2024-01-15T05:01:17;0.00;99.90
2100;DHT22;1055;48.854;9.302;2024-01-15T05:03:43;0.20;99.90
2100;DHT22;1055;48.854;9.302;2024-01-15T05:06:09;0.20;99.90
2100;DHT22;1055;48.854;9.302;2024-01-15T05:08:34;0.20;99.90
2100;DHT22;1055;48.854;9.302;2024-01-15T05:11:00;0.30;99.90
2100;DHT22;1055;48.854;9.302;2024-01-15T05:13:26;0.30;99.90
2100;DHT22;1055;48.854;9.302;2024-01-15T05:15:51;0.30;99.90
2100;DHT22;1055;48.854;9.302;2024-01-15T05:18:17;0.30;99.90
2100;DHT22;1055;48.854;9.302;2024-01-15T05:20:42;0.40;99.90
2100;DHT22;1055;48.854;9.302;2024-01-15T05:23:08;0.30;99.90
2100;DHT22;1055;48.854;9.302;2024-01-15T05:25:33;0.50;99.90
2100;DHT22;1055;48.854;9.302;2024-01-15T05:27:59;0.50;99.90
2100;DHT22;1055;48.854;9.302;2024-01-15T05:30:25;0.50;99.90
2100;DHT22;1055;48.854;9.302;2024-01-15T05:32:50;0.50;99.90
2100;DHT22;1055;48.854;9.302;2024-01-15T05:35:16;0.40;99.90
2100;DHT22;1055;48.854;9.302;2024-01-15T05:37:44;0.30;99.90
2100;DHT22;1055;48.854;9.302;2024-01-15T05:40:12;0.40;99.90
2100;DHT22;1055;48.854;9.302;2024-01-15T05:42:38;0.40;99.90
2100;DHT22;1055;48.854;9.302;2024-01-15T05:45:05;0.50;99.90
2100;DHT22;1055;48.854;9.302;2024-01-15T05:47:30;0.60;99.90
2100;DHT22;1055;48.854;9.302;2024-01-15T05:49:57;0.50;99.90
2100;DHT22;1055;48.854;9.302;2024-01-15T05:52:23;0.40;99.90
2100;DHT22;1055;48.854;9.302;2024-01-15T05:54:49;0.60;99.90
2100;DHT22;1055;48.854;9.302;2024-01-15T05:57:15;0.50;99.90
2100;DHT22;1055;48.854;9.302;2024-01-15T05:59:40;0.30;99.90
2100;DHT22;1055;48.854;9.302;2024-01-15T06:02:06;0.40;99.90
2100;DHT22;1055;48.854;9.302;2024-01-15T06:04:31;0.40;99.90
2100;DHT22;1055;48.854;9.302;2024-01-15T06:06:57;0.40;99.90
2100;DHT22;1055;48.854;9.302;2024-01-15T06:09:22;0.40;99.90
2100;DHT22;1055;48.854;9.302;2024-01-15T06:11:48;0.50;99.90
2100;DHT22;1055;48.854;9.302;2024-01-15T06:14:14;0.50;99.90
2100;DHT22;1055;48.854;9.302;2024-01-15T06:16:39;0.50;99.90
2100;DHT22;1055;48.854;9.302;2024-01-15T06:19:05;0.50;99.90
2100;DHT22;1055;48.854;9.302;2024-01-15T06:21:30;0.60;99.90
2100;DHT22;1055;48.854;9.302;2024-01-15T06:23:56;0.60;99.90
2100;DHT22;1055;48.854;9.302;2024-01-15T06:26:22;0.60;99.90
2100;DHT22;1055;48.854;9.302;2024-01-15T06:28:48;0.60;99.90
2100;DHT22;1055;48.854;9.302;2024-01-15T06:31:13;0.70;99.90
2100;DHT22;1055;48.854;9.302;2024-01-15T06:33:39;0.50;99.90
2100;DHT22;1055;48.854;9.302;2024-01-15T06:36:05;0.60;99.90
2100;DHT22;1055;48.854;9.302;2024-01-15T06:38:31;0.60;99.90
2100;DHT22;1055;48.854;9.302;2024-01-15T06:40:56;0.60;99.90
2100;DHT22;1055;48.854;9.302;2024-01-15T06:43:22;0.50;99.90
2100;DHT22;1055;48.854;9.302;2024-01-15T06:45:47;0.50;99.90
2100;DHT22;1055;48.854;9.302;2024-01-15T06:48:13;0.50;99.90
2100;DHT22;1055;48.854;9.302;2024-01-15T06:50:44;0.50;99.90
2100;DHT22;1055;48.854;9.302;2024-01-15T06:53:10;0.60;99.90
2100;DHT22;1055;48.854;9.302;2024-01-15T06:55:36;0.70;99.90
2100;DHT22;1055;48.854;9.302;2024-01-15T06:58:01;0.90;99.90
2100;DHT22;1055;48.854;9.302;2024-01-15T07:00:27;0.90;99.90
2100;DHT22;1055;48.854;9.302;2024-01-15T07:02:53;0.80;99.90
2100;DHT22;1055;48.854;9.302;2024-01-15T07:05:20;0.90;99.90
2100;DHT22;1055;48.854;9.302;2024-01-15T07:07:46;0.90;99.90
2100;DHT22;1055;48.854;9.302;2024-01-15T07:10:13;0.80;99.90
2100;DHT22;1055;48.854;9.302;2024-01-15T07:12:38;1.00;99.90
2100;DHT22;1055;48.854;9.302;2024-01-15T07:15:04;1.00;99.90
2100;DHT22;1055;48.854;9.302;2024-01-15T07:17:32;0.80;99.90
2100;DHT22;1055;48.854;9.302;2024-01-15T07:19:57;0.90;99.90
2100;DHT22;1055;48.854;9.302;2024-01-15T07:22:23;0.90;99.90
2100;DHT22;1055;48.854;9.302;2024-01-15T07:24:49;1.00;99.90
2100;DHT22;1055;48.854;9.302;2024-01-15T07:27:14;0.90;99.90
2100;DHT22;1055;48.854;9.302;2024-01-15T07:29:40;1.00;99.90
2100;DHT22;1055;48.854;9.302;2024-01-15T07:32:05;1.00;99.90
2100;DHT22;1055;48.854;9.302;2024-01-15T07:34:33;0.80;99.90
2100;DHT22;1055;48.854;9.302;2024-01-15T07:36:58;1.10;99.90
2100;DHT22;1055;48.854;9.302;2024-01-15T07:39:24;1.10;99.90
2100;DHT22;1055;48.854;9.302;2024-01-15T07:41:53;1.00;99.90
2100;DHT22;1055;48.854;9.302;2024-01-15T07:44:19;1.20;99.90
2100;DHT22;1055;48.854;9.302;2024-01-15T07:46:48;1.30;99.90
2100;DHT22;1055;48.854;9.302;2024-01-15T07:49:14;1.40;99.90
2100;DHT22;1055;48.854;9.302;2024-01-15T07:51:40;1.10;99.90
2100;DHT22;1055;48.854;9.302;2024-01-15T07:54:06;1.10;99.90
2100;DHT22;1055;48.854;9.302;2024-01-15T07:56:33;1.20;99.90
2100;DHT22;1055;48.854;9.302;2024-01-15T07:58:59;1.10;99.90
2100;DHT22;1055;48.854;9.302;2024-01-15T08:01:24;1.30;99.90
2100;DHT22;1055;48.854;9.302;2024-01-15T08:03:50;1.30;99.90
2100;DHT22;1055;48.854;9.302;2024-01-15T08:06:15;1.30;99.90
2100;DHT22;1055;48.854;9.302;2024-01-15T08:08:41;1.30;99.90
2100;DHT22;1055;48.854;9.302;2024-01-15T08:11:07;1.20;99.90
2100;DHT22;1055;48.854;9.302;2024-01-15T08:13:32;1.20;99.90
2100;DHT22;1055;48.854;9.302;2024-01-15T08:15:58;1.10;99.90
2100;DHT22;1055;48.854;9.302;2024-01-15T08:18:24;1.20;99.90
2100;DHT22;1055;48.854;9.302;2024-01-15T08:20:50;1.10;99.90
2100;DHT22;1055;48.854;9.302;2024-01-15T08:23:17;1.30;99.90
2100;DHT22;1055;48.854;9.302;2024-01-15T08:25:43;1.20;99.90
2100;DHT22;1055;48.854;9.302;2024-01-15T08:28:08;1.40;99.90
2100;DHT22;1055;48.854;9.302;2024-01-15T08:30:34;1.30;99.90
2100;DHT22;1055;48.854;9.302;2024-01-15T08:33:00;1.30;99.90
2100;DHT22;1055;48.854;9.302;2024-01-15T08:35:25;1.20;99.90
2100;DHT22;1055;48.854;9.302;2024-01-15T08:37:54;1.20;99.90
2100;DHT22;1055;48.854;9.302;2024-01-15T08:40:20;1.10;99.90
2100;DHT22;1055;48.854;9.302;2024-01-15T08:42:45;1.10;99.90
2100;DHT22;1055;48.854;9.302;2024-01-15T08:45:11;1.10;99.90
2100;DHT22;1055;48.854;9.302;2024-01-15T08:47:37;1.20;99.90
2100;DHT22;1055;48.854;9.302;2024-01-15T08:50:03;1.20;99.90
2100;DHT22;1055;48.854;9.302;2024-01-15T08:52:29;1.20;99.90
2100;DHT22;1055;48.854;9.302;2024-01-15T08:54:58;1.30;99.90
2100;DHT22;1055;48.854;9.302;2024-01-15T08:57:24;1.30;99.90
2100;DHT22;1055;48.854;9.302;2024-01-15T08:59:50;1.30;99.90
2100;DHT22;1055;48.854;9.302;2024-01-15T09:02:16;1.40;99.90
2100;DHT22;1055;48.854;9.302;2024-01-15T09:04:42;1.50;99.90
2100;DHT22;1055;48.854;9.302;2024-01-15T09:07:08;1.40;99.90
2100;DHT22;1055;48.854;9.302;2024-01-15T09:09:33;1.40;99.90
2100;DHT22;1055;48.854;9.302;2024-01-15T09:12:00;1.40;99.90
2100;DHT22;1055;48.854;9.302;2024-01-15T09:14:26;1.40;99.90
2100;DHT22;1055;48.854;9.302;2024-01-15T09:16:52;1.40;99.90
2100;DHT22;1055;48.854;9.302;2024-01-15T09:19:18;1.60;99.90
2100;DHT22;1055;48.854;9.302;2024-01-15T09:21:44;1.50;99.90
2100;DHT22;1055;48.854;9.302;2024-01-15T09:24:09;1.50;99.90
2100;DHT22;1055;48.854;9.302;2024-01-15T09:26:35;1.50;99.90
2100;DHT22;1055;48.854;9.302;2024-01-15T09:29:00;1.50;99.90
2100;DHT22;1055;48.854;9.302;2024-01-15T09:31:26;1.50;99.90
2100;DHT22;1055;48.854;9.302;2024-01-15T09:33:52;1.40;99.90
2100;DHT22;1055;48.854;9.302;2024-01-15T09:36:21;1.60;99.90
2100;DHT22;1055;48.854;9.302;2024-01-15T09:38:48;1.60;99.90
2100;DHT22;1055;48.854;9.302;2024-01-15T09:41:13;1.60;99.90
2100;DHT22;1055;48.854;9.302;2024-01-15T09:43:39;1.70;99.90
2100;DHT22;1055;48.854;9.302;2024-01-15T09:46:06;1.70;99.90
2100;DHT22;1055;48.854;9.302;2024-01-15T09:48:31;1.70;99.90
2100;DHT22;1055;48.854;9.302;2024-01-15T09:51:01;1.60;99.90
2100;DHT22;1055;48.854;9.302;2024-01-15T09:53:27;1.80;99.90
2100;DHT22;1055;48.854;9.302;2024-01-15T09:55:53;1.90;99.90
2100;DHT22;1055;48.854;9.302;2024-01-15T09:58:19;2.00;99.90
2100;DHT22;1055;48.854;9.302;2024-01-15T10:00:45;2.10;99.90
2100;DHT22;1055;48.854;9.302;2024-01-15T10:03:13;2.00;99.90
2100;DHT22;1055;48.854;9.302;2024-01-15T10:05:39;2.10;99.90
2100;DHT22;1055;48.854;9.302;2024-01-15T10:08:05;1.90;99.90
2100;DHT22;1055;48.854;9.302;2024-01-15T10:10:31;2.00;99.90
2100;DHT22;1055;48.854;9.302;2024-01-15T10:12:58;2.10;99.90
2100;DHT22;1055;48.854;9.302;2024-01-15T10:15:25;2.00;99.90
2100;DHT22;1055;48.854;9.302;2024-01-15T10:17:51;2.00;99.90
2100;DHT22;1055;48.854;9.302;2024-01-15T10:20:17;2.00;99.90
2100;DHT22;1055;48.854;9.302;2024-01-15T10:22:45;2.00;99.90
2100;DHT22;1055;48.854;9.302;2024-01-15T10:25:13;2.10;99.90
2100;DHT22;1055;48.854;9.302;2024-01-15T10:27:40;2.00;99.90
2100;DHT22;1055;48.854;9.302;2024-01-15T10:30:08;2.10;99.90
2100;DHT22;1055;48.854;9.302;2024-01-15T10:32:33;1.90;99.90
2100;DHT22;1055;48.854;9.302;2024-01-15T10:34:59;2.00;99.90
2100;DHT22;1055;48.854;9.302;2024-01-15T10:37:25;1.90;99.90
2100;DHT22;1055;48.854;9.302;2024-01-15T10:39:50;2.00;99.90
2100;DHT22;1055;48.854;9.302;2024-01-15T10:42:16;2.00;99.90
2100;DHT22;1055;48.854;9.302;2024-01-15T10:44:44;1.90;99.90
2100;DHT22;1055;48.854;9.302;2024-01-15T10:47:10;1.90;99.90
2100;DHT22;1055;48.854;9.302;2024-01-15T10:49:36;1.90;99.90
2100;DHT22;1055;48.854;9.302;2024-01-15T10:52:02;1.90;99.90
2100;DHT22;1055;48.854;9.302;2024-01-15T10:54:29;2.00;99.90
2100;DHT22;1055;48.854;9.302;2024-01-15T10:56:56;1.90;99.90
2100;DHT22;1055;48.854;9.302;2024-01-15T10:59:21;2.00;99.90
2100;DHT22;1055;48.854;9.302;2024-01-15T11:01:51;2.10;99.90
2100;DHT22;1055;48.854;9.302;2024-01-15T11:04:20;2.00;99.90
2100;DHT22;1055;48.854;9.302;2024-01-15T11:06:49;2.20;99.90
2100;DHT22;1055;48.854;9.302;2024-01-15T11:09:15;2.00;99.90
2100;DHT22;1055;48.854;9.302;2024-01-15T11:11:47;2.10;99.90
2100;DHT22;1055;48.854;9.302;2024-01-15T11:14:41;2.20;99.90
2100;DHT22;1055;48.854;9.302;2024-01-15T11:17:10;2.20;99.90
2100;DHT22;1055;48.854;9.302;2024-01-15T11:22:09;1.80;99.90
2100;DHT22;1055;48.854;9.302;2024-01-15T11:24:37;1.90;99.90
2100;DHT22;1055;48.854;9.302;2024-01-15T11:27:03;1.90;99.90
2100;DHT22;1055;48.854;9.302;2024-01-15T11:29:34;1.80;99.90
2100;DHT22;1055;48.854;9.302;2024-01-15T11:32:02;1.70;99.90
2100;DHT22;1055;48.854;9.302;2024-01-15T11:34:55;1.50;99.90
2100;DHT22;1055;48.854;9.302;2024-01-15T11:37:24;1.40;99.90
2100;DHT22;1055;48.854;9.302;2024-01-15T11:39:54;1.40;99.90
2100;DHT22;1055;48.854;9.302;2024-01-15T11:42:22;1.50;99.90
2100;DHT22;1055;48.854;9.302;2024-01-15T11:44:48;1.40;99.90
2100;DHT22;1055;48.854;9.302;2024-01-15T11:47:14;1.40;99.90
2100;DHT22;1055;48.854;9.302;2024-01-15T11:50:02;1.30;99.90
2100;DHT22;1055;48.854;9.302;2024-01-15T11:52:35;1.50;99.90
2100;DHT22;1055;48.854;9.302;2024-01-15T11:55:10;1.50;99.90
2100;DHT22;1055;48.854;9.302;2024-01-15T12:00:06;1.50;99.90
2100;DHT22;1055;48.854;9.302;2024-01-15T12:02:33;1.50;99.90
2100;DHT22;1055;48.854;9.302;2024-01-15T12:04:58;1.50;99.90
2100;DHT22;1055;48.854;9.302;2024-01-15T12:07:24;1.50;99.90
2100;DHT22;1055;48.854;9.302;2024-01-15T12:09:49;1.40;99.90
2100;DHT22;1055;48.854;9.302;2024-01-15T12:12:26;1.30;99.90
2100;DHT22;1055;48.854;9.302;2024-01-15T12:14:53;1.40;99.90
2100;DHT22;1055;48.854;9.302;2024-01-15T12:17:19;1.10;99.90
2100;DHT22;1055;48.854;9.302;2024-01-15T12:19:44;1.20;99.90
2100;DHT22;1055;48.854;9.302;2024-01-15T12:22:10;1.20;99.90
2100;DHT22;1055;48.854;9.302;2024-01-15T12:24:36;1.20;99.90
2100;DHT22;1055;48.854;9.302;2024-01-15T12:27:01;1.20;99.90
2100;DHT22;1055;48.854;9.302;2024-01-15T12:29:27;1.20;99.90
2100;DHT22;1055;48.854;9.302;2024-01-15T12:31:53;1.20;99.90
2100;DHT22;1055;48.854;9.302;2024-01-15T12:34:19;1.10;99.90
2100;DHT22;1055;48.854;9.302;2024-01-15T12:36:46;1.10;99.90
2100;DHT22;1055;48.854;9.302;2024-01-15T12:39:12;1.20;99.90
2100;DHT22;1055;48.854;9.302;2024-01-15T12:41:39;1.00;99.90
2100;DHT22;1055;48.854;9.302;2024-01-15T12:44:05;0.90;99.90
2100;DHT22;1055;48.854;9.302;2024-01-15T12:46:30;0.80;99.90
2100;DHT22;1055;48.854;9.302;2024-01-15T12:48:56;0.90;99.90
2100;DHT22;1055;48.854;9.302;2024-01-15T12:51:26;0.90;99.90
2100;DHT22;1055;48.854;9.302;2024-01-15T12:53:53;0.90;99.90
2100;DHT22;1055;48.854;9.302;2024-01-15T12:56:18;0.80;99.90
2100;DHT22;1055;48.854;9.302;2024-01-15T12:58:44;0.80;99.90
2100;DHT22;1055;48.854;9.302;2024-01-15T13:01:09;0.90;99.90
2100;DHT22;1055;48.854;9.302;2024-01-15T13:03:35;0.90;99.90
2100;DHT22;1055;48.854;9.302;2024-01-15T13:06:01;0.90;99.90
2100;DHT22;1055;48.854;9.302;2024-01-15T13:08:27;0.90;99.90
2100;DHT22;1055;48.854;9.302;2024-01-15T13:10:55;0.90;99.90
2100;DHT22;1055;48.854;9.302;2024-01-15T13:13:22;1.00;99.90
2100;DHT22;1055;48.854;9.302;2024-01-15T13:15:47;1.00;99.90
2100;DHT22;1055;48.854;9.302;2024-01-15T13:18:13;1.00;99.90
2100;DHT22;1055;48.854;9.302;2024-01-15T13:20:39;1.00;99.90
2100;DHT22;1055;48.854;9.302;2024-01-15T13:23:04;1.00;99.90
2100;DHT22;1055;48.854;9.302;2024-01-15T13:25:30;1.00;99.90
2100;DHT22;1055;48.854;9.302;2024-01-15T13:27:56;1.10;99.90
2100;DHT22;1055;48.854;9.302;2024-01-15T13:30:21;1.00;99.90
2100;DHT22;1055;48.854;9.302;2024-01-15T13:32:47;1.10;99.90
2100;DHT22;1055;48.854;9.302;2024-01-15T13:35:12;1.10;99.90
2100;DHT22;1055;48.854;9.302;2024-01-15T13:37:39;1.10;99.90
2100;DHT22;1055;48.854;9.302;2024-01-15T13:40:07;1.10;99.90
2100;DHT22;1055;48.854;9.302;2024-01-15T13:42:37;1.10;99.90
2100;DHT22;1055;48.854;9.302;2024-01-15T13:45:04;1.10;99.90
2100;DHT22;1055;48.854;9.302;2024-01-15T13:47:31;1.10;99.90
2100;DHT22;1055;48.854;9.302;2024-01-15T13:49:57;1.10;99.90
2100;DHT22;1055;48.854;9.302;2024-01-15T13:52:23;1.20;99.90
2100;DHT22;1055;48.854;9.302;2024-01-15T13:54:49;1.20;99.90
2100;DHT22;1055;48.854;9.302;2024-01-15T13:57:14;1.20;99.90
2100;DHT22;1055;48.854;9.302;2024-01-15T13:59:40;1.20;99.90
2100;DHT22;1055;48.854;9.302;2024-01-15T14:02:05;1.20;99.90
2100;DHT22;1055;48.854;9.302;2024-01-15T14:04:31;1.20;99.90
2100;DHT22;1055;48.854;9.302;2024-01-15T14:06:57;1.10;99.90
2100;DHT22;1055;48.854;9.302;2024-01-15T14:09:22;1.20;99.90
2100;DHT22;1055;48.854;9.302;2024-01-15T14:11:48;1.20;99.90
2100;DHT22;1055;48.854;9.302;2024-01-15T14:14:14;1.20;99.90
2100;DHT22;1055;48.854;9.302;2024-01-15T14:16:40;1.20;99.90
2100;DHT22;1055;48.854;9.302;2024-01-15T14:19:05;1.20;99.90
2100;DHT22;1055;48.854;9.302;2024-01-15T14:21:35;1.30;99.90
2100;DHT22;1055;48.854;9.302;2024-01-15T14:24:01;1.30;99.90
2100;DHT22;1055;48.854;9.302;2024-01-15T14:26:26;1.30;99.90
2100;DHT22;1055;48.854;9.302;2024-01-15T14:28:53;1.20;99.90
2100;DHT22;1055;48.854;9.302;2024-01-15T14:31:20;1.30;99.90
2100;DHT22;1055;48.854;9.302;2024-01-15T14:33:46;1.30;99.90
2100;DHT22;1055;48.854;9.302;2024-01-15T14:36:11;1.30;99.90
2100;DHT22;1055;48.854;9.302;2024-01-15T14:38:37;1.20;99.90
2100;DHT22;1055;48.854;9.302;2024-01-15T14:41:02;1.30;99.90
2100;DHT22;1055;48.854;9.302;2024-01-15T14:43:28;1.20;99.90
2100;DHT22;1055;48.854;9.302;2024-01-15T14:45:53;1.20;99.90
2100;DHT22;1055;48.854;9.302;2024-01-15T14:48:19;1.10;99.90
2100;DHT22;1055;48.854;9.302;2024-01-15T14:50:44;1.00;99.90
2100;DHT22;1055;48.854;9.302;2024-01-15T14:53:10;1.00;99.90
2100;DHT22;1055;48.854;9.302;2024-01-15T14:55:36;1.00;99.90
2100;DHT22;1055;48.854;9.302;2024-01-15T14:58:01;1.00;99.90
2100;DHT22;1055;48.854;9.302;2024-01-15T15:00:27;1.00;99.90
2100;DHT22;1055;48.854;9.302;2024-01-15T15:02:53;0.90;99.90
2100;DHT22;1055;48.854;9.302;2024-01-15T15:05:19;0.80;99.90
2100;DHT22;1055;48.854;9.302;2024-01-15T15:07:45;0.80;99.90
2100;DHT22;1055;48.854;9.302;2024-01-15T15:10:11;0.80;99.90
2100;DHT22;1055;48.854;9.302;2024-01-15T15:12:36;0.80;99.90
2100;DHT22;1055;48.854;9.302;2024-01-15T15:15:03;0.80;99.90
2100;DHT22;1055;48.854;9.302;2024-01-15T15:17:29;0.80;99.90
2100;DHT22;1055;48.854;9.302;2024-01-15T15:19:54;0.80;99.90
2100;DHT22;1055;48.854;9.302;2024-01-15T15:22:20;0.70;99.90
2100;DHT22;1055;48.854;9.302;2024-01-15T15:24:46;0.70;99.90
2100;DHT22;1055;48.854;9.302;2024-01-15T15:27:12;0.80;99.90
2100;DHT22;1055;48.854;9.302;2024-01-15T15:29:37;0.80;99.90
2100;DHT22;1055;48.854;9.302;2024-01-15T15:32:03;0.80;99.90
2100;DHT22;1055;48.854;9.302;2024-01-15T15:34:29;0.90;99.90
2100;DHT22;1055;48.854;9.302;2024-01-15T15:36:54;0.80;99.90
2100;DHT22;1055;48.854;9.302;2024-01-15T15:39:20;0.90;99.90
2100;DHT22;1055;48.854;9.302;2024-01-15T15:41:45;1.00;99.90
2100;DHT22;1055;48.854;9.302;2024-01-15T15:44:11;1.10;99.90
2100;DHT22;1055;48.854;9.302;2024-01-15T15:46:38;1.10;99.90
2100;DHT22;1055;48.854;9.302;2024-01-15T15:49:04;1.00;99.90
2100;DHT22;1055;48.854;9.302;2024-01-15T15:51:32;1.00;99.90
2100;DHT22;1055;48.854;9.302;2024-01-15T15:53:58;0.90;99.90
2100;DHT22;1055;48.854;9.302;2024-01-15T15:56:24;1.00;99.90
2100;DHT22;1055;48.854;9.302;2024-01-15T15:58:51;1.10;99.90
2100;DHT22;1055;48.854;9.302;2024-01-15T16:01:17;1.10;99.90
2100;DHT22;1055;48.854;9.302;2024-01-15T16:03:42;1.10;99.90
2100;DHT22;1055;48.854;9.302;2024-01-15T16:06:08;1.10;99.90
2100;DHT22;1055;48.854;9.302;2024-01-15T16:08:33;1.00;99.90
2100;DHT22;1055;48.854;9.302;2024-01-15T16:10:59;0.90;99.90
2100;DHT22;1055;48.854;9.302;2024-01-15T16:13:24;0.90;99.90